Latest Weather Observations for Emerald

IDQ60801

Issued at 7:05 pm EST Tuesday 2 September 2014 (issued every 30 minutes, with the page automatically refreshed every 10 minutes)

About weather observations | Map of weather stations | Latest weather observations for QLD | Other Formats
Station Details ID: 035264 Name: EMERALD AIRPORT Lat: -23.57 Lon: 148.18 Height: 189.4 m
Data from the previous 72 hours. | See also: Recent months at Emerald
Date/Time
EST
Temp
°C
App
Temp
°C
Dew
Point
Rel
Hum
%
Delta-T
°C
Wind Press
QNH
hPa
Press
MSL
hPa
Rain
since 9 am
mm
Dir
 
Spd
km/h
Gust
km/h
Spd
kts
Gust
kts
02/07:00pm 23.3 17.9 2.2 25 10.1 SW 20 28 11 15 1014.3 - 0.0
02/06:30pm 24.1 19.6 2.3 24 10.5 SW 15 22 8 12 1014.0 - 0.0
02/06:00pm 26.4 20.1 1.7 20 12.0 WSW 24 33 13 18 1013.3 1012.8 0.0
02/05:30pm 27.5 21.8 0.3 17 12.9 WSW 20 30 11 16 1013.0 - 0.0
02/05:00pm 28.5 21.0 -1.6 14 13.9 WSW 28 35 15 19 1012.6 - 0.0
02/04:30pm 28.8 20.4 -2.3 13 14.3 W 32 43 17 23 1012.2 - 0.0
02/04:00pm 29.6 23.0 -0.7 14 14.4 WSW 24 35 13 19 1012.1 - 0.0
02/03:30pm 29.5 22.1 -0.8 14 14.3 SW 28 41 15 22 1012.0 - 0.0
02/03:00pm 29.7 21.0 -0.6 14 14.4 WSW 35 50 19 27 1011.9 1011.4 0.0
02/02:54pm 29.9 20.4 -0.5 14 14.5 SW 39 46 21 25 1011.9 - 0.0
02/02:30pm 29.5 21.3 -0.8 14 14.3 W 32 44 17 24 1012.2 - 0.0
02/02:07pm 29.9 22.7 0.5 15 14.3 W 28 46 15 25 1012.5 - 0.0
02/02:00pm 29.1 21.4 -0.1 15 14.0 W 30 39 16 21 1012.6 - 0.0
02/01:49pm 29.5 22.2 0.2 15 14.1 W 28 46 15 25 1012.7 - 0.0
02/01:30pm 29.0 24.0 4.5 21 12.7 W 20 35 11 19 1013.1 - 0.0
02/01:00pm 29.0 24.1 5.1 22 12.5 WSW 20 28 11 15 1013.9 - 0.0
02/12:30pm 28.1 23.6 6.8 26 11.4 W 20 32 11 17 1014.4 - 0.0
02/12:00pm 27.5 23.3 7.4 28 10.8 W 19 33 10 18 1015.1 1014.5 0.0
02/11:30am 26.9 22.4 8.4 31 10.1 W 22 32 12 17 1015.6 - 0.0
02/11:00am 25.6 22.1 8.6 34 9.3 NNW 17 26 9 14 1015.9 - 0.0
02/10:30am 24.3 20.8 8.7 37 8.4 NNW 17 26 9 14 1016.3 - 0.0
02/10:00am 22.9 18.1 9.0 41 7.5 N 24 32 13 17 1016.9 - 0.0
02/09:30am 21.1 16.7 9.0 46 6.5 NNW 22 28 12 15 1017.5 - 0.0
02/09:00am 19.8 16.5 9.7 52 5.4 NNW 17 24 9 13 1017.9 1017.4 0.0
02/08:30am 17.5 14.0 8.6 56 4.6 N 17 24 9 13 1018.0 - 0.0
02/08:00am 16.3 12.9 7.5 56 4.4 N 15 20 8 11 1018.0 - 0.0
02/07:30am 15.4 11.8 6.9 57 4.2 N 15 19 8 10 1017.8 - 0.0
02/07:00am 14.3 10.6 6.4 59 3.8 N 15 19 8 10 1017.7 - 0.0
02/06:30am 13.7 10.3 5.8 59 3.8 NNW 13 20 7 11 1017.4 - 0.0
02/06:00am 13.2 9.4 5.9 61 3.5 N 15 17 8 9 1016.8 1016.3 0.0
02/05:30am 13.2 9.4 5.9 61 3.5 N 15 17 8 9 1016.6 - 0.0
02/05:00am 11.7 8.9 5.3 65 3.0 N 9 13 5 7 1016.7 - 0.0
02/04:30am 10.6 9.4 4.5 66 2.8 CALM 0 0 0 0 1016.7 - 0.0
02/04:00am 12.0 9.5 4.7 61 3.4 N 7 9 4 5 1016.5 - 0.0
02/03:30am 11.7 9.4 4.9 63 3.1 N 6 7 3 4 1016.5 - 0.0
02/03:00am 11.4 9.0 4.2 61 3.3 NNE 6 7 3 4 1016.7 1016.2 0.0
02/02:30am 12.7 9.8 4.7 58 3.7 NNE 9 11 5 6 1016.7 - 0.0
02/02:00am 13.7 11.2 4.8 55 4.2 N 7 9 4 5 1017.0 - 0.0
02/01:30am 13.5 11.2 4.6 55 4.1 NE 6 7 3 4 1017.0 - 0.0
02/01:00am 13.4 12.2 4.6 55 4.1 CALM 0 0 0 0 1017.4 - 0.0
02/12:30am 13.3 10.8 3.9 53 4.3 ENE 6 7 3 4 1017.5 - 0.0
02/12:00am 14.7 12.0 3.8 48 5.0 NNE 7 9 4 5 1017.2 1016.7 0.0
 
Date/Time
EST
Temp
°C
App
Temp
°C
Dew
Point
Rel
Hum
%
Delta-T
°C
Wind Press
QNH
hPa
Press
MSL
hPa
Rain
since 9 am
mm
Dir
 
Spd
km/h
Gust
km/h
Spd
kts
Gust
kts
01/11:30pm 15.7 13.0 3.8 45 5.5 NNE 7 9 4 5 1017.6 - 0.0
01/11:00pm 16.2 12.7 3.6 43 5.9 NNE 11 15 6 8 1017.5 - 0.0
01/10:30pm 17.2 12.9 3.5 40 6.4 N 15 19 8 10 1017.2 - 0.0
01/10:00pm 18.1 13.5 3.6 38 6.8 NNE 17 22 9 12 1017.1 - 0.0
01/09:30pm 17.3 14.5 3.2 39 6.6 NE 7 9 4 5 1017.0 - 0.0
01/09:00pm 16.5 13.1 3.9 43 5.9 NE 11 11 6 6 1017.0 1016.5 0.0
01/08:30pm 17.3 13.9 2.1 36 6.9 ENE 9 11 5 6 1016.8 - 0.0
01/08:00pm 18.7 16.6 1.7 32 7.8 E 2 7 1 4 1016.6 - 0.0
01/07:30pm 19.8 16.8 1.7 30 8.3 E 7 9 4 5 1016.5 - 0.0
01/07:00pm 20.2 17.2 2.1 30 8.4 E 7 7 4 4 1016.3 - 0.0
01/06:30pm 22.1 18.9 2.8 28 9.2 ENE 9 11 5 6 1015.8 - 0.0
01/06:00pm 24.4 21.1 0.0 20 11.3 NE 7 9 4 5 1015.7 1015.1 0.0
01/05:30pm 26.3 23.5 -0.7 17 12.5 N 4 11 2 6 1015.8 - 0.0
01/05:00pm 26.7 23.0 -0.3 17 12.6 N 9 17 5 9 1015.3 - 0.0
01/04:30pm 27.2 23.9 0.1 17 12.8 N 7 15 4 8 1015.1 - 0.0
01/04:00pm 27.3 23.1 -0.7 16 13.1 N 11 19 6 10 1015.1 - 0.0
01/03:30pm 27.1 23.0 0.0 17 12.8 NE 11 17 6 9 1015.1 - 0.0
01/03:00pm 26.9 21.7 -0.2 17 12.7 NE 17 28 9 15 1015.2 1014.6 0.0
01/02:30pm 26.2 22.5 0.0 18 12.3 NE 9 15 5 8 1015.8 - 0.0
01/02:00pm 26.8 23.3 1.3 19 12.3 N 9 20 5 11 1016.4 - 0.0
01/01:30pm 25.9 21.9 0.5 19 12.0 NNW 11 17 6 9 1016.9 - 0.0
01/01:00pm 25.8 21.9 1.2 20 11.7 NE 11 22 6 12 1017.7 - 0.0
01/12:30pm 25.4 21.7 2.2 22 11.3 NNW 11 20 6 11 1018.1 - 0.0
01/12:00pm 24.7 21.4 4.5 27 10.1 NNW 11 19 6 10 1018.7 1018.2 0.0
01/11:30am 23.9 20.7 5.3 30 9.5 NNE 11 19 6 10 1019.3 - 0.0
01/11:00am 22.8 19.7 5.7 33 8.7 NNW 11 20 6 11 1019.7 - 0.0
01/10:30am 22.3 18.9 5.7 34 8.4 N 13 22 7 12 1019.9 - 0.0
01/10:00am 20.9 17.1 5.7 37 7.6 NNW 15 20 8 11 1020.3 - 0.0
01/09:30am 20.0 17.1 6.4 41 6.9 NNW 11 17 6 9 1020.3 - 0.0
01/09:00am 18.9 15.8 5.7 42 6.5 N 11 19 6 10 1020.3 1019.7 0.0
01/08:30am 17.6 15.0 5.9 46 5.8 NE 9 11 5 6 1020.7 - 0.0
01/08:00am 15.1 12.2 6.7 57 4.1 NE 11 13 6 7 1020.6 - 0.0
01/07:30am 12.7 10.5 6.3 65 3.1 E 7 9 4 5 1020.7 - 0.0
01/07:00am 10.0 6.7 4.8 70 2.4 ESE 11 13 6 7 1020.0 - 0.0
01/06:30am 8.5 4.3 3.8 72 2.1 ESE 15 15 8 8 1019.3 - 0.0
01/06:00am 8.0 5.2 3.3 72 2.0 ESE 7 9 4 5 1018.7 1018.2 0.0
01/05:30am 8.9 6.7 3.5 69 2.4 SSW 4 6 2 3 1018.3 - 0.0
01/05:00am 9.5 7.0 3.5 66 2.6 S 6 7 3 4 1017.7 - 0.0
01/04:30am 9.7 7.0 3.9 67 2.6 SSE 7 9 4 5 1017.5 - 0.0
01/04:00am 9.9 8.3 2.5 60 3.2 CALM 0 0 0 0 1017.4 - 0.0
01/03:30am 10.8 8.6 3.6 61 3.2 E 4 7 2 4 1017.1 - 0.0
01/03:00am 10.8 8.0 3.1 59 3.4 ENE 7 11 4 6 1016.8 1016.3 0.0
01/02:30am 11.2 8.2 2.2 54 3.9 E 7 9 4 5 1017.2 - 0.0
01/02:00am 11.0 8.0 2.3 55 3.8 ENE 7 9 4 5 1017.3 - 0.0
01/01:30am 10.7 7.1 0.7 50 4.2 E 9 13 5 7 1017.3 - 0.0
01/01:00am 11.9 8.3 0.7 46 4.7 ESE 9 13 5 7 1017.6 - 0.0
01/12:30am 11.8 8.4 2.0 51 4.2 ESE 9 13 5 7 1017.7 - 0.0
01/12:00am 12.3 9.1 0.7 45 4.9 SSW 7 9 4 5 1017.7 1017.2 0.0
 
Date/Time
EST
Temp
°C
App
Temp
°C
Dew
Point
Rel
Hum
%
Delta-T
°C
Wind Press
QNH
hPa
Press
MSL
hPa
Rain
since 9 am
mm
Dir
 
Spd
km/h
Gust
km/h
Spd
kts
Gust
kts
31/11:30pm 13.3 9.7 0.7 42 5.4 SSW 9 9 5 5 1017.6 - 0.0
31/11:00pm 13.7 10.5 1.0 42 5.5 WSW 7 9 4 5 1017.6 - 0.0
31/10:30pm 14.1 10.7 1.7 43 5.4 W 9 11 5 6 1017.4 - 0.0
31/10:00pm 14.3 11.2 1.2 41 5.7 ENE 7 11 4 6 1017.3 - 0.0
31/09:30pm 14.0 12.2 1.3 42 5.5 CALM 0 0 0 0 1017.4 - 0.0
31/09:00pm 16.7 14.8 0.8 34 7.0 CALM 0 2 0 1 1017.4 1017.1 0.0
31/08:30pm 16.3 13.2 1.2 36 6.7 E 7 9 4 5 1017.1 - 0.0
31/08:00pm 16.2 14.1 1.5 37 6.5 ENE 2 9 1 5 1017.0 - 0.0
31/07:30pm 18.7 16.9 1.2 31 7.9 CALM 0 0 0 0 1016.8 - 0.0
31/07:00pm 19.7 16.5 -0.3 26 8.8 NE 6 9 3 5 1016.4 - 0.0
31/06:30pm 22.8 19.5 -1.3 20 10.7 E 6 13 3 7 1016.2 - 0.0
31/06:00pm 23.1 19.5 -3.3 17 11.3 E 6 7 3 4 1015.9 1015.5 0.0
31/05:30pm 25.0 22.0 -1.7 17 12.0 E 4 7 2 4 1015.8 - 0.0
31/05:00pm 25.3 21.1 -4.1 14 12.7 ENE 9 15 5 8 1015.6 - 0.0
31/04:30pm 25.7 21.0 -4.7 13 13.0 SSW 11 15 6 8 1015.4 - 0.0
31/04:00pm 25.7 21.4 -4.7 13 13.0 WNW 9 17 5 9 1015.3 - 0.0
31/03:30pm 25.9 21.8 -2.7 15 12.7 ENE 9 19 5 10 1015.3 - 0.0
31/03:00pm 26.0 21.6 -2.6 15 12.7 WSW 11 19 6 10 1015.5 1015.1 0.0
31/02:30pm 26.2 21.4 -2.4 15 12.8 SE 13 28 7 15 1015.6 - 0.0
31/02:00pm 25.9 21.6 -1.8 16 12.5 S 11 19 6 10 1016.2 - 0.0
31/01:30pm 25.4 21.9 -1.4 17 12.2 SE 7 13 4 7 1016.7 - 0.0
31/01:00pm 24.8 20.5 -1.9 17 11.9 W 11 19 6 10 1017.1 - 0.0
31/12:30pm 23.7 19.7 -2.0 18 11.4 ENE 9 15 5 8 1017.6 - 0.0
31/12:00pm 23.6 19.7 -1.3 19 11.1 S 9 13 5 7 1018.2 1017.9 0.0
31/11:30am 23.2 19.2 -2.4 18 11.2 ESE 9 17 5 9 1018.7 - 0.0
31/11:00am 22.9 18.9 -1.9 19 10.9 E 9 19 5 10 1019.4 - 0.0
31/10:30am 22.1 18.7 -0.6 22 10.2 E 7 13 4 7 1020.1 - 0.0
31/10:00am 21.2 17.4 -0.7 23 9.7 E 9 17 5 9 1020.5 - 0.0
31/09:30am 20.3 15.8 -0.3 25 9.2 ESE 13 19 7 10 1020.8 - 0.0
31/09:00am 18.7 13.7 -1.2 26 8.5 SSE 15 20 8 11 1021.0 1020.7 0.0
31/08:30am 17.4 12.5 -0.8 29 7.8 SSE 15 19 8 10 1020.9 - 0.0
31/08:00am 15.7 11.1 -0.9 32 7.0 SSE 13 17 7 9 1020.6 - 0.0
31/07:30am 13.7 9.1 -0.7 37 6.0 SSE 13 17 7 9 1020.3 - 0.0
31/07:00am 11.9 7.6 -1.3 40 5.3 SSE 11 17 6 9 1020.1 - 0.0
31/06:30am 11.9 6.5 -1.6 39 5.4 SSE 17 20 9 11 1019.8 - 0.0
31/06:00am 11.4 6.3 -1.7 40 5.2 SSE 15 17 8 9 1019.5 1019.1 0.0
31/05:30am 10.4 5.7 -1.9 42 4.8 SSE 13 15 7 8 1019.1 - 0.0
31/05:00am 11.8 6.7 -2.0 38 5.5 SSE 15 17 8 9 1018.7 - 0.0
31/04:30am 10.7 6.3 -2.3 40 5.0 SSE 11 13 6 7 1018.6 - 0.0
31/04:00am 11.5 6.3 -2.7 37 5.5 SSE 15 19 8 10 1018.4 - 0.0
31/03:30am 12.2 6.6 -2.8 35 5.8 SSE 17 20 9 11 1018.3 - 0.0
31/03:00am 12.3 6.7 -2.7 35 5.9 SSE 17 20 9 11 1018.2 1017.9 0.0
31/02:30am 12.7 7.2 -2.3 35 5.9 SSE 17 20 9 11 1018.5 - 0.0
31/02:00am 12.7 7.6 -2.3 35 5.9 SSE 15 20 8 11 1018.6 - 0.0
31/01:30am 12.4 7.3 -2.2 36 5.8 SSE 15 19 8 10 1018.7 - 0.0
31/01:00am 13.5 8.0 -2.0 34 6.2 SSE 17 20 9 11 1018.7 - 0.0
31/12:30am 13.6 8.2 -1.6 35 6.2 SSE 17 19 9 10 1018.7 - 0.0
31/12:00am 14.3 9.3 -0.9 35 6.3 SSE 15 19 8 10 1018.7 1018.4 0.0
 
Date/Time
EST
Temp
°C
App
Temp
°C
Dew
Point
Rel
Hum
%
Delta-T
°C
Wind Press
QNH
hPa
Press
MSL
hPa
Rain
since 9 am
mm
Dir
 
Spd
km/h
Gust
km/h
Spd
kts
Gust
kts
30/11:30pm 13.4 9.2 1.4 44 5.2 S 13 15 7 8 1018.8 - 0.0
30/11:00pm 12.9 9.2 2.2 48 4.7 ESE 11 17 6 9 1018.8 - 0.0
30/10:30pm 12.3 9.5 3.0 53 4.1 S 7 11 4 6 1018.6 - 0.0
30/10:00pm 14.6 13.0 2.2 43 5.5 CALM 0 0 0 0 1018.6 - 0.0
30/09:30pm 15.2 13.8 3.4 45 5.4 CALM 0 0 0 0 1018.5 - 0.0
30/09:00pm 15.7 14.1 2.2 40 6.1 CALM 0 0 0 0 1018.6 1018.3 0.0
30/08:30pm 17.5 15.2 3.0 38 6.7 NW 4 7 2 4 1018.4 - 0.0
30/08:00pm 16.4 13.1 2.4 39 6.4 ENE 9 11 5 6 1018.1 - 0.0
30/07:30pm 17.4 14.6 2.2 36 6.9 NE 6 7 3 4 1018.0 - 0.0

Other Formats:

Comma delimited format used in spreadsheet applications
http://www.bom.gov.au/fwo/IDQ60801/IDQ60801.94363.axf

JavaScript Object Notation format (JSON) in row-major order
http://www.bom.gov.au/fwo/IDQ60801/IDQ60801.94363.json